Time;durP1;ratioP1;P1;durP2;ratioP2;P2;SDS_P1;SDS_P2;PMS_P1;PMS_P2;Temp;Humidity;BMP_temperature;BMP_pressure;BME280_temperature;BME280_humidity;BME280_pressure;Samples;Min_cycle;Max_cycle;Signal;HPM_P1;HPM_P2
2021/10/07 00:00:36;;;;;;;;;;;;;;;20.04;nan;101433.00;5051657;28;19943;-42
2021/10/07 00:03:02;;;;;;;;;;;;;;;20.04;nan;101431.16;5053011;28;19925;-42
2021/10/07 00:05:27;;;;;;;;;;;;;;;20.03;nan;101429.41;5052583;28;19970;-43
2021/10/07 00:07:52;;;;;;;;;;;;;;;;;;5052864;28;19913;-42
2021/10/07 00:10:18;;;;;;;;;;;;;;;20.04;nan;101449.19;5052159;28;19917;-44
2021/10/07 00:12:43;;;;;;;;;;;;;;;20.03;nan;101434.81;5035033;28;19917;-43
2021/10/07 00:15:09;;;;;;;;;;;;;;;20.02;nan;101445.72;5033584;28;20401;-41
2021/10/07 00:17:35;;;;;;;;;;;;;;;;;;5034770;28;19924;-42
2021/10/07 00:20:00;;;;;;;;;;;;;;;20.02;nan;101435.78;5052687;28;19913;-43
2021/10/07 00:22:26;;;;;;;;;;;;;;;20.01;nan;101441.28;5034675;28;19927;-42
2021/10/07 00:24:51;;;;;;;;;;;;;;;20.02;nan;101440.31;5052011;28;19921;-43
2021/10/07 00:27:16;;;;;;;;;;;;;;;;;;5052439;28;19917;-41
2021/10/07 00:29:46;;;;;;;;;;;;;;;20.01;nan;101433.19;5052482;28;20456;-43
2021/10/07 00:32:15;;;;;;;;;;;;;;;;;;5052538;28;19913;-42
2021/10/07 00:39:38;;;;;;;;;;;;;;;19.98;nan;101436.09;5052304;28;19917;-46
2021/10/07 00:42:03;;;;;;;;;;;;;;;19.99;nan;101419.78;5052367;28;19935;-42
2021/10/07 00:44:32;;;;;;;;;;;;;;;19.98;nan;101436.97;5033565;28;19924;-42
2021/10/07 00:46:59;;;;;;;;;;;;;;;19.98;nan;101436.09;5052352;28;19916;-43
2021/10/07 00:49:25;;;;;;;;;;;;;;;19.96;nan;101431.69;5052135;28;19936;-43
2021/10/07 00:51:51;;;;;;;;;;;;;;;19.96;nan;101431.69;5052000;28;19919;-42
2021/10/07 00:54:18;;;;;;;;;;;;;;;19.96;nan;101428.13;5051018;28;19917;-44
2021/10/07 00:56:44;;;;;;;;;;;;;;;19.98;nan;101422.59;5052202;28;19966;-42
2021/10/07 00:59:10;;;;;;;;;;;;;;;19.96;nan;101431.69;5033785;28;19917;-43
2021/10/07 01:01:35;;;;;;;;;;;;;;;19.96;nan;101428.97;5052000;28;20271;-42
2021/10/07 01:04:01;;;;;;;;;;;;;;;19.95;nan;101419.13;5051040;28;19923;-46
2021/10/07 01:06:26;;;;;;;;;;;;;;;19.95;nan;101412.88;5051640;28;19917;-45
2021/10/07 01:08:52;;;;;;;;;;;;;;;19.95;nan;101416.44;5051976;28;20271;-42
2021/10/07 01:11:17;;;;;;;;;;;;;;;19.94;nan;101403.91;5051680;28;19913;-43
2021/10/07 01:13:43;;;;;;;;;;;;;;;19.92;nan;101413.97;5051347;28;19913;-46
2021/10/07 01:16:09;;;;;;;;;;;;;;;19.94;nan;101411.16;5051647;28;19924;-42
2021/10/07 01:18:34;;;;;;;;;;;;;;;19.93;nan;101404.03;5051422;28;20521;-44
2021/10/07 01:21:00;;;;;;;;;;;;;;;19.92;nan;101408.56;5051006;28;19916;-43
2021/10/07 01:23:26;;;;;;;;;;;;;;;19.92;nan;101399.63;5051809;28;19921;-42
2021/10/07 01:25:51;;;;;;;;;;;;;;;19.92;nan;101410.41;5051585;28;20440;-44
2021/10/07 01:28:16;;;;;;;;;;;;;;;;;;5051412;28;19912;-46
2021/10/07 01:30:42;;;;;;;;;;;;;;;19.91;nan;101405.97;5036232;28;19936;-42
2021/10/07 01:33:07;;;;;;;;;;;;;;;19.91;nan;101401.44;5031783;28;20441;-43
2021/10/07 01:35:33;;;;;;;;;;;;;;;19.91;nan;101412.22;5031831;28;19921;-44
2021/10/07 01:37:58;;;;;;;;;;;;;;;19.90;nan;101397.00;5031931;28;20375;-42
2021/10/07 01:40:24;;;;;;;;;;;;;;;19.87;nan;101405.31;5046217;28;19924;-42
2021/10/07 01:42:49;;;;;;;;;;;;;;;;;;5051384;28;19924;-42
2021/10/07 01:45:15;;;;;;;;;;;;;;;19.91;nan;101416.75;5051278;28;19920;-42
2021/10/07 01:47:40;;;;;;;;;;;;;;;19.88;nan;101396.28;5051609;28;19913;-42
2021/10/07 01:50:07;;;;;;;;;;;;;;;19.89;nan;101406.09;5055071;28;19992;-42
2021/10/07 01:52:32;;;;;;;;;;;;;;;;;;5039983;28;19966;-42
2021/10/07 01:54:57;;;;;;;;;;;;;;;19.86;nan;101394.63;5055216;28;19916;-42
2021/10/07 01:57:23;;;;;;;;;;;;;;;19.86;nan;101395.50;5050723;28;20337;-42
2021/10/07 01:59:48;;;;;;;;;;;;;;;19.86;nan;101383.84;5051414;28;19920;-42
2021/10/07 02:02:14;;;;;;;;;;;;;;;19.86;nan;101387.41;5051137;28;20425;-42
2021/10/07 02:04:39;;;;;;;;;;;;;;;19.85;nan;101391.06;5051286;28;19956;-44
2021/10/07 02:07:04;;;;;;;;;;;;;;;;;;5050307;28;19970;-44
2021/10/07 02:09:29;;;;;;;;;;;;;;;19.85;nan;101379.44;5051233;28;20004;-44
2021/10/07 02:11:55;;;;;;;;;;;;;;;19.85;nan;101376.72;5051227;28;19913;-45
2021/10/07 02:14:20;;;;;;;;;;;;;;;19.84;nan;101388.47;5050860;28;19917;-42
2021/10/07 02:16:45;;;;;;;;;;;;;;;;;;5050698;28;20345;-43
2021/10/07 02:19:11;;;;;;;;;;;;;;;19.83;nan;101381.34;5051044;28;19975;-46
2021/10/07 02:21:36;;;;;;;;;;;;;;;19.83;nan;101379.50;5050686;28;19917;-45
2021/10/07 02:24:01;;;;;;;;;;;;;;;;;;5054086;28;20472;-44
2021/10/07 02:26:27;;;;;;;;;;;;;;;;;;5037257;28;20035;-44
2021/10/07 02:28:52;;;;;;;;;;;;;;;19.81;nan;101373.38;5054226;28;19931;-45
2021/10/07 02:31:17;;;;;;;;;;;;;;;19.80;nan;101371.63;5054646;28;19913;-44
2021/10/07 02:33:43;;;;;;;;;;;;;;;19.79;nan;101364.50;5054564;28;20661;-46
2021/10/07 02:36:08;;;;;;;;;;;;;;;19.79;nan;101385.22;5043770;28;20014;-43
2021/10/07 02:38:33;;;;;;;;;;;;;;;;;;5034800;28;19913;-45
2021/10/07 02:40:59;;;;;;;;;;;;;;;19.78;nan;101373.56;5034868;28;20026;-43
2021/10/07 02:43:24;;;;;;;;;;;;;;;19.78;nan;101372.72;5034569;28;20291;-45
2021/10/07 02:45:49;;;;;;;;;;;;;;;19.78;nan;101373.56;5040748;28;19917;-42
2021/10/07 02:48:15;;;;;;;;;;;;;;;19.77;nan;101371.84;5051969;28;20379;-46
2021/10/07 02:50:40;;;;;;;;;;;;;;;19.77;nan;101363.75;5052759;28;20405;-43
2021/10/07 02:53:06;;;;;;;;;;;;;;;19.77;nan;101363.75;5043995;28;19921;-43
2021/10/07 02:55:31;;;;;;;;;;;;;;;19.77;nan;101352.97;5033689;28;19920;-42
2021/10/07 02:57:56;;;;;;;;;;;;;;;19.76;nan;101358.44;5046181;28;19946;-44
2021/10/07 03:00:22;;;;;;;;;;;;;;;19.75;nan;101352.19;5034318;28;20383;-44
2021/10/07 03:02:47;;;;;;;;;;;;;;;;;;5034319;28;19913;-44
2021/10/07 03:05:15;;;;;;;;;;;;;;;19.75;nan;101346.81;5035518;28;19998;-45
2021/10/07 03:07:41;;;;;;;;;;;;;;;19.74;nan;101338.81;5034278;28;19913;-44
2021/10/07 03:10:07;;;;;;;;;;;;;;;19.73;nan;101346.06;5038462;28;19928;-43
2021/10/07 03:12:32;;;;;;;;;;;;;;;19.74;nan;101342.38;5054136;28;19952;-42
2021/10/07 03:14:57;;;;;;;;;;;;;;;;;;5052811;28;19919;-42
2021/10/07 03:17:23;;;;;;;;;;;;;;;;;;5053992;28;19935;-42
2021/10/07 03:19:48;;;;;;;;;;;;;;;19.73;nan;101335.28;5053990;28;19920;-44
2021/10/07 03:22:15;;;;;;;;;;;;;;;19.72;nan;101336.22;5035147;28;19917;-43
2021/10/07 03:24:41;;;;;;;;;;;;;;;19.72;nan;101338.91;5033850;28;19917;-45
2021/10/07 03:27:07;;;;;;;;;;;;;;;19.72;nan;101341.59;5033876;28;19917;-44
2021/10/07 03:29:32;;;;;;;;;;;;;;;19.70;nan;101330.94;5032564;28;19913;-43
2021/10/07 03:31:57;;;;;;;;;;;;;;;19.70;nan;101332.78;5048158;28;20090;-43
2021/10/07 03:34:23;;;;;;;;;;;;;;;19.70;nan;101324.69;5053523;28;20286;-46
2021/10/07 03:36:48;;;;;;;;;;;;;;;19.69;nan;101329.22;5053463;28;19921;-44
2021/10/07 03:39:14;;;;;;;;;;;;;;;19.69;nan;101329.22;5047562;28;19918;-44
2021/10/07 03:41:39;;;;;;;;;;;;;;;;;;5033614;28;19916;-45
2021/10/07 03:44:04;;;;;;;;;;;;;;;19.67;nan;101325.75;5015521;28;19917;-45
2021/10/07 03:46:30;;;;;;;;;;;;;;;19.68;nan;101332.00;5030439;28;19913;-42
2021/10/07 03:48:55;;;;;;;;;;;;;;;;;;5050189;28;20059;-43
2021/10/07 03:51:20;;;;;;;;;;;;;;;;;;5033798;28;19913;-43
2021/10/07 03:53:46;;;;;;;;;;;;;;;19.67;nan;101332.97;5033243;28;19917;-42
2021/10/07 03:56:11;;;;;;;;;;;;;;;19.64;nan;101323.25;5033280;28;19996;-45
2021/10/07 03:58:36;;;;;;;;;;;;;;;19.66;nan;101332.13;5046956;28;19916;-42
2021/10/07 04:01:02;;;;;;;;;;;;;;;19.64;nan;101331.34;5053162;28;19912;-43
2021/10/07 04:03:27;;;;;;;;;;;;;;;19.66;nan;101331.25;5052834;28;20377;-45
2021/10/07 04:05:55;;;;;;;;;;;;;;;;;;5047636;28;19917;-42
2021/10/07 04:08:20;;;;;;;;;;;;;;;;;;5033346;28;20268;-42
2021/10/07 04:10:50;;;;;;;;;;;;;;;;;;5033112;28;20383;-45
2021/10/07 04:13:15;;;;;;;;;;;;;;;19.61;nan;101323.47;5032969;28;19913;-42
2021/10/07 04:15:40;;;;;;;;;;;;;;;;;;5035712;28;20303;-42
2021/10/07 04:18:06;;;;;;;;;;;;;;;;;;5053373;28;19924;-42
2021/10/07 04:20:31;;;;;;;;;;;;;;;19.64;nan;101327.78;5054851;28;20425;-42
2021/10/07 04:22:56;;;;;;;;;;;;;;;19.62;nan;101332.44;5052689;28;19921;-45
2021/10/07 04:25:22;;;;;;;;;;;;;;;19.62;nan;101327.03;5052354;28;19913;-44
2021/10/07 04:27:47;;;;;;;;;;;;;;;19.61;nan;101333.34;5032779;28;20288;-44
2021/10/07 04:30:12;;;;;;;;;;;;;;;;;;5032596;28;19917;-44
2021/10/07 04:32:38;;;;;;;;;;;;;;;19.61;nan;101323.47;5032692;28;20249;-42
2021/10/07 04:35:04;;;;;;;;;;;;;;;19.60;nan;101324.41;5032398;28;19921;-42
2021/10/07 04:37:30;;;;;;;;;;;;;;;19.59;nan;101325.38;5052581;28;19917;-43
2021/10/07 04:39:55;;;;;;;;;;;;;;;;;;5034142;28;19920;-42
2021/10/07 04:42:20;;;;;;;;;;;;;;;19.58;nan;101309.31;5052445;28;19917;-44
2021/10/07 04:44:45;;;;;;;;;;;;;;;19.59;nan;101319.13;5051006;28;19967;-42
2021/10/07 04:47:11;;;;;;;;;;;;;;;19.57;nan;101321.91;5033440;28;19913;-42
2021/10/07 04:49:36;;;;;;;;;;;;;;;19.56;nan;101314.78;5014466;28;19921;-43
2021/10/07 04:52:02;;;;;;;;;;;;;;;19.56;nan;101325.59;5014654;28;20414;-42
2021/10/07 04:54:29;;;;;;;;;;;;;;;19.57;nan;101316.50;5032194;28;19914;-42
2021/10/07 04:56:55;;;;;;;;;;;;;;;19.55;nan;101323.88;5049452;28;19916;-44
2021/10/07 04:59:20;;;;;;;;;;;;;;;;;;5052012;28;19924;-42
2021/10/07 05:01:45;;;;;;;;;;;;;;;19.56;nan;101319.34;5052141;28;19913;-42
2021/10/07 05:04:11;;;;;;;;;;;;;;;19.55;nan;101309.53;5051787;28;19962;-44
2021/10/07 05:06:36;;;;;;;;;;;;;;;19.54;nan;101307.81;5037197;28;19921;-43
2021/10/07 05:09:01;;;;;;;;;;;;;;;19.53;nan;101306.91;5031981;28;20387;-44
2021/10/07 05:11:27;;;;;;;;;;;;;;;19.53;nan;101308.75;5032108;28;19956;-48
2021/10/07 05:13:52;;;;;;;;;;;;;;;;;;5037472;28;19975;-42
2021/10/07 05:16:17;;;;;;;;;;;;;;;19.53;nan;101303.34;5051882;28;19967;-42
2021/10/07 05:18:43;;;;;;;;;;;;;;;19.51;nan;101299.91;5051857;28;19966;-42
2021/10/07 05:21:08;;;;;;;;;;;;;;;;;;5051828;28;19913;-42
2021/10/07 05:23:36;;;;;;;;;;;;;;;19.50;nan;101304.44;5051498;28;19940;-42
2021/10/07 05:26:02;;;;;;;;;;;;;;;19.49;nan;101303.56;5051479;28;20363;-43
2021/10/07 05:28:27;;;;;;;;;;;;;;;;;;5051676;28;19971;-43
2021/10/07 05:30:52;;;;;;;;;;;;;;;19.49;nan;101295.47;5051724;28;19967;-42
2021/10/07 05:33:20;;;;;;;;;;;;;;;19.48;nan;101295.59;5052767;28;19930;-41
2021/10/07 05:35:45;;;;;;;;;;;;;;;19.48;nan;101290.19;5048251;28;19925;-44
2021/10/07 05:38:10;;;;;;;;;;;;;;;19.47;nan;101289.34;5014430;28;19917;-43
2021/10/07 05:40:36;;;;;;;;;;;;;;;19.46;nan;101276.84;5031522;28;19924;-42
2021/10/07 05:43:01;;;;;;;;;;;;;;;19.46;nan;101284.91;5031794;28;19976;-43
2021/10/07 05:45:26;;;;;;;;;;;;;;;19.45;nan;101283.16;5032137;28;19920;-45
2021/10/07 05:47:52;;;;;;;;;;;;;;;19.47;nan;101280.38;5033359;28;19913;-42
2021/10/07 05:50:17;;;;;;;;;;;;;;;19.45;nan;101275.06;5051410;28;19913;-42
2021/10/07 05:52:43;;;;;;;;;;;;;;;19.44;nan;101275.19;5044636;28;20453;-42
2021/10/07 05:55:08;;;;;;;;;;;;;;;19.43;nan;101286.97;5040756;28;19920;-41
2021/10/07 05:57:34;;;;;;;;;;;;;;;19.43;nan;101281.56;5043679;28;19913;-42
2021/10/07 05:59:59;;;;;;;;;;;;;;;19.42;nan;101272.63;5047766;28;20016;-41
2021/10/07 06:02:25;;;;;;;;;;;;;;;19.40;nan;101279.94;5054973;28;19924;-41
2021/10/07 06:04:50;;;;;;;;;;;;;;;19.40;nan;101277.25;5039851;28;19921;-42
2021/10/07 06:07:15;;;;;;;;;;;;;;;19.41;nan;101273.56;5035805;28;19917;-42
2021/10/07 06:09:41;;;;;;;;;;;;;;;;;;5018370;28;20414;-41
2021/10/07 06:12:06;;;;;;;;;;;;;;;19.41;nan;101273.56;5035301;28;19917;-43
2021/10/07 06:14:31;;;;;;;;;;;;;;;19.41;nan;101267.31;5035097;28;19966;-41
2021/10/07 06:16:57;;;;;;;;;;;;;;;;;;5036596;28;19913;-42
2021/10/07 06:19:24;;;;;;;;;;;;;;;19.40;nan;101274.53;5055211;28;20003;-42
2021/10/07 06:21:50;;;;;;;;;;;;;;;19.40;nan;101274.53;5047012;28;19955;-41
2021/10/07 06:24:15;;;;;;;;;;;;;;;;;;5029360;28;19920;-41
2021/10/07 06:26:40;;;;;;;;;;;;;;;19.40;nan;101263.75;5036518;28;19917;-44
2021/10/07 06:29:06;;;;;;;;;;;;;;;;;;5033369;28;19925;-42
2021/10/07 06:31:31;;;;;;;;;;;;;;;19.40;nan;101279.94;5018190;28;19917;-41
2021/10/07 06:33:57;;;;;;;;;;;;;;;19.39;nan;101282.75;5034891;28;19917;-41
2021/10/07 06:36:22;;;;;;;;;;;;;;;19.39;nan;101290.84;5036761;28;19921;-42
2021/10/07 06:38:47;;;;;;;;;;;;;;;19.38;nan;101289.94;5030763;28;19925;-42
2021/10/07 06:41:14;;;;;;;;;;;;;;;19.39;nan;101289.00;5048454;28;19920;-42
2021/10/07 06:43:39;;;;;;;;;;;;;;;19.39;nan;101283.59;5051717;28;20355;-42
2021/10/07 06:46:05;;;;;;;;;;;;;;;19.39;nan;101289.00;5052909;28;20008;-41
2021/10/07 06:48:30;;;;;;;;;;;;;;;19.39;nan;101290.84;5048042;28;19940;-41
2021/10/07 06:50:56;;;;;;;;;;;;;;;19.39;nan;101282.75;5047069;28;20515;-42
2021/10/07 06:53:21;;;;;;;;;;;;;;;19.37;nan;101263.97;5050495;28;20371;-45
2021/10/07 06:55:47;;;;;;;;;;;;;;;19.37;nan;101285.53;5033077;28;19927;-44
2021/10/07 06:58:13;;;;;;;;;;;;;;;19.38;nan;101284.56;5031712;28;19983;-47
2021/10/07 07:00:40;;;;;;;;;;;;;;;19.37;nan;101288.22;5039843;28;19952;-44
2021/10/07 07:03:05;;;;;;;;;;;;;;;19.34;nan;101291.13;5032336;28;19923;-47
2021/10/07 07:05:30;;;;;;;;;;;;;;;19.29;nan;101301.34;5046963;28;19921;-44
2021/10/07 07:07:56;;;;;;;;;;;;;;;;;;5041328;28;20525;-41
2021/10/07 07:10:21;;;;;;;;;;;;;;;19.17;nan;101292.28;5040658;28;20173;-45
2021/10/07 07:12:48;;;;;;;;;;;;;;;19.12;nan;101291.72;5016277;28;20383;-42
2021/10/07 07:15:14;;;;;;;;;;;;;;;19.09;nan;101300.00;5039232;28;19924;-42
2021/10/07 07:17:40;;;;;;;;;;;;;;;19.09;nan;101293.75;5044519;28;19917;-44
2021/10/07 07:20:05;;;;;;;;;;;;;;;;;;5044908;28;19916;-42
2021/10/07 07:22:30;;;;;;;;;;;;;;;19.11;nan;101286.41;5024156;28;19924;-42
2021/10/07 07:24:56;;;;;;;;;;;;;;;19.12;nan;101288.16;5035263;28;19966;-43
2021/10/07 07:27:22;;;;;;;;;;;;;;;19.11;nan;101292.66;5051357;28;19916;-45
2021/10/07 07:29:47;;;;;;;;;;;;;;;;;;5023486;28;20378;-42
2021/10/07 07:32:12;;;;;;;;;;;;;;;19.14;nan;101284.38;5020586;28;19931;-43
2021/10/07 07:34:37;;;;;;;;;;;;;;;;;;5031718;28;19917;-42
2021/10/07 07:37:03;;;;;;;;;;;;;;;19.17;nan;101264.47;5039722;28;20370;-43
2021/10/07 07:39:28;;;;;;;;;;;;;;;19.20;nan;101269.66;5043208;28;19929;-46
2021/10/07 07:41:54;;;;;;;;;;;;;;;19.22;nan;101273.94;5029249;28;19996;-44
2021/10/07 07:44:19;;;;;;;;;;;;;;;;;;5032550;28;19924;-41
2021/10/07 07:46:45;;;;;;;;;;;;;;;19.28;nan;101272.69;5021397;28;19924;-42
2021/10/07 07:49:10;;;;;;;;;;;;;;;19.31;nan;101276.97;5042722;28;20339;-46
2021/10/07 07:51:35;;;;;;;;;;;;;;;19.34;nan;101274.09;5024805;28;20322;-41
2021/10/07 07:54:01;;;;;;;;;;;;;;;19.37;nan;101280.13;5035979;28;19940;-41
2021/10/07 07:56:26;;;;;;;;;;;;;;;19.39;nan;101283.59;5033906;28;19960;-42
2021/10/07 07:58:53;;;;;;;;;;;;;;;19.40;nan;101277.25;5046855;28;20478;-43
2021/10/07 08:01:19;;;;;;;;;;;;;;;19.45;nan;101269.69;5025291;28;19917;-43
2021/10/07 08:03:44;;;;;;;;;;;;;;;19.49;nan;101271.19;5046622;28;19920;-45
2021/10/07 08:06:10;;;;;;;;;;;;;;;19.53;nan;101271.84;5051293;28;19960;-45
2021/10/07 08:08:35;;;;;;;;;;;;;;;19.58;nan;101267.03;5051241;28;19920;-43
2021/10/07 08:11:00;;;;;;;;;;;;;;;;;;5019818;28;20338;-44
2021/10/07 08:13:25;;;;;;;;;;;;;;;19.65;nan;101270.19;5015270;28;19943;-43
2021/10/07 08:15:51;;;;;;;;;;;;;;;19.68;nan;101265.44;5047358;28;19917;-45
2021/10/07 08:18:17;;;;;;;;;;;;;;;19.72;nan;101260.69;5044755;28;19928;-43
2021/10/07 08:20:43;;;;;;;;;;;;;;;19.75;nan;101265.88;5034270;28;19928;-47
2021/10/07 08:23:12;;;;;;;;;;;;;;;19.80;nan;101271.81;5045863;28;19920;-46
2021/10/07 08:25:37;;;;;;;;;;;;;;;19.83;nan;101265.34;5045571;28;19921;-44
2021/10/07 08:28:03;;;;;;;;;;;;;;;19.87;nan;101258.75;5053259;28;19931;-45
2021/10/07 08:30:28;;;;;;;;;;;;;;;19.90;nan;101259.41;5039944;28;19917;-47
2021/10/07 08:32:53;;;;;;;;;;;;;;;19.93;nan;101267.28;5046768;28;19912;-47
2021/10/07 08:35:19;;;;;;;;;;;;;;;19.97;nan;101246.34;5050259;28;19921;-44
2021/10/07 08:37:44;;;;;;;;;;;;;;;;;;5050141;28;19924;-45
2021/10/07 08:40:10;;;;;;;;;;;;;;;;;;5049665;28;19913;-43
2021/10/07 08:42:35;;;;;;;;;;;;;;;;;;5050157;28;20007;-45
2021/10/07 08:45:01;;;;;;;;;;;;;;;20.09;nan;101241.91;5032433;28;19979;-43
2021/10/07 08:47:26;;;;;;;;;;;;;;;20.12;nan;101236.28;5025518;28;19921;-42
2021/10/07 08:49:52;;;;;;;;;;;;;;;20.14;nan;101237.03;5030212;28;19963;-42
2021/10/07 08:52:17;;;;;;;;;;;;;;;;;;5016086;28;19928;-43
2021/10/07 08:54:43;;;;;;;;;;;;;;;;;;5030536;28;19920;-44
2021/10/07 08:57:08;;;;;;;;;;;;;;;20.19;nan;101237.59;5030563;28;19920;-43
2021/10/07 08:59:35;;;;;;;;;;;;;;;20.20;nan;101225.81;5030338;28;19959;-43
2021/10/07 09:02:01;;;;;;;;;;;;;;;20.21;nan;101225.69;5030191;28;19920;-44
2021/10/07 09:04:37;;;;;;;;;;;;;;;20.24;nan;101235.41;5028637;28;19917;-42
2021/10/07 09:07:10;;;;;;;;;;;;;;;20.24;nan;101219.22;5031092;28;19913;-43
2021/10/07 09:09:37;;;;;;;;;;;;;;;20.25;nan;101223.63;5031418;28;19913;-45
2021/10/07 09:12:04;;;;;;;;;;;;;;;20.26;nan;101219.09;5031438;28;20406;-43
2021/10/07 09:14:32;;;;;;;;;;;;;;;20.26;nan;101217.28;5031746;28;19913;-45
2021/10/07 09:16:58;;;;;;;;;;;;;;;20.26;nan;101214.56;5037513;28;19920;-43
2021/10/07 09:19:23;;;;;;;;;;;;;;;;;;5071377;28;19912;-47
2021/10/07 09:21:50;;;;;;;;;;;;;;;20.26;nan;101201.06;5037730;28;19913;-44
2021/10/07 09:24:26;;;;;;;;;;;;;;;20.26;nan;101211.00;5066319;28;20298;-44
2021/10/07 09:26:51;;;;;;;;;;;;;;;;;;5071807;28;19919;-44
2021/10/07 09:29:16;;;;;;;;;;;;;;;20.26;nan;101208.28;5071515;28;20007;-43
2021/10/07 09:31:42;;;;;;;;;;;;;;;20.25;nan;101202.03;5059002;28;20003;-46
2021/10/07 09:34:07;;;;;;;;;;;;;;;20.26;nan;101194.78;5066407;28;19917;-45
2021/10/07 09:36:33;;;;;;;;;;;;;;;20.25;nan;101193.06;5069379;28;20403;-43
2021/10/07 09:39:01;;;;;;;;;;;;;;;20.25;nan;101185.84;5069488;28;19918;-44
2021/10/07 09:41:26;;;;;;;;;;;;;;;;;;5057066;28;19943;-43
2021/10/07 09:43:51;;;;;;;;;;;;;;;20.25;nan;101177.72;5055065;28;19959;-44
2021/10/07 09:46:17;;;;;;;;;;;;;;;;;;5049484;28;19917;-42
2021/10/07 09:48:43;;;;;;;;;;;;;;;;;;5048372;28;19920;-45
2021/10/07 09:51:12;;;;;;;;;;;;;;;20.19;nan;101175.50;5045219;28;19924;-45
2021/10/07 09:53:37;;;;;;;;;;;;;;;20.17;nan;101180.13;5036710;28;20008;-44
2021/10/07 09:56:02;;;;;;;;;;;;;;;20.16;nan;101175.72;5047510;28;20008;-43
2021/10/07 09:58:28;;;;;;;;;;;;;;;20.17;nan;101169.34;5051246;28;20007;-43
2021/10/07 10:00:54;;;;;;;;;;;;;;;20.31;nan;101173.75;5033395;28;20375;-40
2021/10/07 10:03:21;;;;;;;;;;;;;;;20.42;nan;101166.56;5040008;28;20079;-41
2021/10/07 10:05:48;;;;;;;;;;;;;;;20.50;nan;101176.81;5013506;28;19995;-41
2021/10/07 10:08:14;;;;;;;;;;;;;;;20.50;nan;101157.94;5033048;28;19921;-41
2021/10/07 10:10:39;;;;;;;;;;;;;;;;;;5049621;28;19916;-43
2021/10/07 10:13:04;;;;;;;;;;;;;;;;;;5051116;28;19962;-41
2021/10/07 10:15:30;;;;;;;;;;;;;;;20.50;nan;101147.13;5055843;28;19923;-41
2021/10/07 10:17:55;;;;;;;;;;;;;;;20.50;nan;101151.66;5043718;28;20403;-42
2021/10/07 10:20:20;;;;;;;;;;;;;;;;;;5048390;28;19916;-41
2021/10/07 10:22:46;;;;;;;;;;;;;;;;;;5051916;28;20018;-41
2021/10/07 10:25:11;;;;;;;;;;;;;;;20.50;nan;101141.72;5043102;28;19935;-42
2021/10/07 10:27:54;;;;;;;;;;;;;;;20.50;nan;101148.97;5046641;28;20414;-41
2021/10/07 10:30:23;;;;;;;;;;;;;;;20.50;nan;101138.16;5029467;28;20405;-41
2021/10/07 10:32:48;;;;;;;;;;;;;;;;;;5052411;28;20413;-41
2021/10/07 10:35:14;;;;;;;;;;;;;;;;;;5043390;28;19920;-42
2021/10/07 10:37:54;;;;;;;;;;;;;;;20.49;nan;101130.97;5040201;28;19920;-42
2021/10/07 10:40:19;;;;;;;;;;;;;;;;;;5034557;28;20405;-46
2021/10/07 10:42:44;;;;;;;;;;;;;;;;;;5019744;28;19952;-41
2021/10/07 10:45:10;;;;;;;;;;;;;;;20.49;nan;101122.88;5053806;28;19917;-43
2021/10/07 10:47:35;;;;;;;;;;;;;;;;;;5054403;28;19921;-40
2021/10/07 10:50:14;;;;;;;;;;;;;;;20.51;nan;101124.53;5053572;28;20337;-43
2021/10/07 10:52:53;;;;;;;;;;;;;;;20.51;nan;101107.47;5043096;28;19920;-43
2021/10/07 10:55:22;;;;;;;;;;;;;;;20.52;nan;101101.94;5041396;28;19920;-42
2021/10/07 10:57:50;;;;;;;;;;;;;;;20.52;nan;101104.66;5019708;28;19960;-41
2021/10/07 11:00:34;;;;;;;;;;;;;;;20.53;nan;101102.81;5033863;28;20352;-41
2021/10/07 11:03:06;;;;;;;;;;;;;;;20.53;nan;101109.09;5033688;28;20416;-41
2021/10/07 11:05:31;;;;;;;;;;;;;;;20.52;nan;101109.19;5019432;28;20090;-42
2021/10/07 11:08:12;;;;;;;;;;;;;;;20.52;nan;101103.78;5047919;28;20591;-41
2021/10/07 11:10:39;;;;;;;;;;;;;;;20.51;nan;101096.66;5048983;28;19936;-40
2021/10/07 11:13:04;;;;;;;;;;;;;;;20.52;nan;101087.59;5053444;28;19924;-42
2021/10/07 11:15:29;;;;;;;;;;;;;;;;;;5049211;28;19913;-41
2021/10/07 11:17:55;;;;;;;;;;;;;;;20.51;nan;101088.56;5049482;28;19917;-42
2021/10/07 11:20:28;;;;;;;;;;;;;;;20.52;nan;101084.88;5038210;28;20368;-41
2021/10/07 11:23:09;;;;;;;;;;;;;;;20.52;nan;101065.97;5018183;28;20451;-41
2021/10/07 11:25:34;;;;;;;;;;;;;;;;;;5051553;28;19969;-42
2021/10/07 11:28:00;;;;;;;;;;;;;;;20.50;nan;101067.94;5051096;28;20011;-41
2021/10/07 11:30:25;;;;;;;;;;;;;;;20.51;nan;101065.13;5053150;28;20329;-41
2021/10/07 11:32:51;;;;;;;;;;;;;;;20.54;nan;101066.75;5031633;28;20379;-41
2021/10/07 11:35:18;;;;;;;;;;;;;;;20.56;nan;101070.16;5051341;28;19928;-42
2021/10/07 11:37:44;;;;;;;;;;;;;;;20.58;nan;101057.41;5033872;28;19952;-41
2021/10/07 11:40:16;;;;;;;;;;;;;;;20.60;nan;101052.75;5023387;28;19917;-42
2021/10/07 11:42:42;;;;;;;;;;;;;;;20.60;nan;101053.59;5024435;28;19916;-41
2021/10/07 11:45:07;;;;;;;;;;;;;;;;;;5053199;28;20458;-42
2021/10/07 11:47:36;;;;;;;;;;;;;;;20.61;nan;101033.75;5054155;28;20314;-41
2021/10/07 11:50:11;;;;;;;;;;;;;;;20.62;nan;101035.44;5050263;28;19912;-44
2021/10/07 11:52:37;;;;;;;;;;;;;;;;;;5033485;28;20379;-41
2021/10/07 11:55:03;;;;;;;;;;;;;;;20.64;nan;101019.13;5046003;28;19920;-41
2021/10/07 11:57:28;;;;;;;;;;;;;;;20.65;nan;101007.34;5035924;28;19917;-41
2021/10/07 11:59:53;;;;;;;;;;;;;;;20.63;nan;101004.75;5051345;28;20073;-45
2021/10/07 12:02:19;;;;;;;;;;;;;;;;;;5048008;28;19916;-42
2021/10/07 12:04:44;;;;;;;;;;;;;;;20.65;nan;101000.09;5042281;28;20681;-45
2021/10/07 12:07:14;;;;;;;;;;;;;;;20.67;nan;101003.53;5052702;28;19916;-41
2021/10/07 12:09:43;;;;;;;;;;;;;;;20.67;nan;100983.75;5043479;28;19963;-42
2021/10/07 12:12:08;;;;;;;;;;;;;;;20.69;nan;100989.94;5040167;28;19981;-42
2021/10/07 12:14:34;;;;;;;;;;;;;;;20.68;nan;100983.66;5048814;28;20007;-41
2021/10/07 12:16:59;;;;;;;;;;;;;;;20.71;nan;100976.28;5054140;28;19924;-42
2021/10/07 12:19:27;;;;;;;;;;;;;;;;;;5052769;28;19916;-44
2021/10/07 12:21:57;;;;;;;;;;;;;;;20.73;nan;100975.19;5036281;28;19920;-42
2021/10/07 12:24:23;;;;;;;;;;;;;;;20.73;nan;100967.09;5036677;28;19921;-42
2021/10/07 12:26:49;;;;;;;;;;;;;;;;;;5036902;28;19924;-41
2021/10/07 12:29:14;;;;;;;;;;;;;;;20.76;nan;100944.34;5052585;28;19913;-42
2021/10/07 12:31:50;;;;;;;;;;;;;;;20.76;nan;100957.88;5039823;28;20448;-43
2021/10/07 12:34:16;;;;;;;;;;;;;;;20.78;nan;100948.66;5027252;28;19913;-42
2021/10/07 12:36:44;;;;;;;;;;;;;;;20.79;nan;100944.13;5032408;28;19920;-41
2021/10/07 12:39:22;;;;;;;;;;;;;;;20.81;nan;100939.47;5051977;28;19923;-43
2021/10/07 12:41:55;;;;;;;;;;;;;;;20.80;nan;100941.31;5039577;28;20425;-42
2021/10/07 12:44:22;;;;;;;;;;;;;;;20.80;nan;100932.34;5019724;28;19920;-42
2021/10/07 12:46:58;;;;;;;;;;;;;;;20.82;nan;100931.22;5039439;28;19924;-41
2021/10/07 12:49:34;;;;;;;;;;;;;;;20.83;nan;100926.69;5050416;28;19923;-42
2021/10/07 12:52:00;;;;;;;;;;;;;;;20.84;nan;100931.97;5039304;28;20007;-42
2021/10/07 12:54:25;;;;;;;;;;;;;;;;;;5039729;28;19959;-42
2021/10/07 12:56:50;;;;;;;;;;;;;;;20.86;nan;100921.03;5043061;28;19917;-41
2021/10/07 12:59:16;;;;;;;;;;;;;;;20.86;nan;100919.19;5049123;28;19963;-41
2021/10/07 13:01:45;;;;;;;;;;;;;;;20.88;nan;100916.38;5040325;28;19917;-41
2021/10/07 13:04:15;;;;;;;;;;;;;;;20.90;nan;100909.00;5050140;28;19920;-41
2021/10/07 13:06:42;;;;;;;;;;;;;;;20.91;nan;100906.19;5041063;28;20000;-41
2021/10/07 13:09:07;;;;;;;;;;;;;;;20.93;nan;100909.63;5037507;28;20415;-41
2021/10/07 13:11:33;;;;;;;;;;;;;;;20.93;nan;100906.91;5031517;28;20028;-44
2021/10/07 13:13:59;;;;;;;;;;;;;;;20.95;nan;100906.81;5033380;28;19920;-42
2021/10/07 13:16:26;;;;;;;;;;;;;;;20.96;nan;100897.72;5039801;28;19923;-42
2021/10/07 13:18:53;;;;;;;;;;;;;;;20.97;nan;100910.22;5044684;28;20397;-42
2021/10/07 13:21:18;;;;;;;;;;;;;;;;;;5030087;28;19928;-41
2021/10/07 13:23:44;;;;;;;;;;;;;;;20.99;nan;100899.31;5031968;28;19921;-42
2021/10/07 13:26:10;;;;;;;;;;;;;;;20.99;nan;100891.22;5045576;28;20405;-42
2021/10/07 13:28:36;;;;;;;;;;;;;;;21.00;nan;100893.78;5044401;28;19917;-42
2021/10/07 13:31:02;;;;;;;;;;;;;;;21.01;nan;100895.47;5040271;28;20306;-42
2021/10/07 13:33:28;;;;;;;;;;;;;;;21.02;nan;100904.44;5043642;28;19917;-43